This is the latest recevied weather packets stored in our database for station/object E24OWX-2. If no packets are shown the sender has not sent any weather packets the latest 10 day(s).
| Time | Temp. | Humidity | Pressure | Rain* | Wind** | Luminosity | Snow |
|---|---|---|---|---|---|---|---|
| 1777895214 | 34.44° C | 59% | 998 hPa | - | - | 0 W/m² | - |
| 1777894290 | 34.44° C | 59% | 998 hPa | - | - | 0 W/m² | - |
| 1777893367 | 34.44° C | 59% | 998 hPa | - | - | 0 W/m² | - |
| 1777892445 | 34.44° C | 59% | 998 hPa | - | - | 0 W/m² | - |
| 1777891563 | 34.44° C | 59% | 998 hPa | - | - | 0 W/m² | - |
| 1777891523 | 34.44° C | 59% | 998 hPa | - | - | 0 W/m² | - |
| 1777890601 | 34.44° C | 59% | 998 hPa | - | - | 0 W/m² | - |
| 1777889715 | 34.44° C | 59% | 998 hPa | - | - | 0 W/m² | - |
| 1777889677 | 34.44° C | 59% | 998 hPa | - | - | 0 W/m² | - |
| 1777888754 | 34.44° C | 59% | 998 hPa | - | - | 0 W/m² | - |
| 1777887832 | 34.44° C | 59% | 998 hPa | - | - | 0 W/m² | - |
| 1777886909 | 34.44° C | 59% | 998 hPa | - | - | 0 W/m² | - |
| 1777885987 | 34.44° C | 59% | 998 hPa | - | - | 0 W/m² | - |
| 1777885065 | 34.44° C | 59% | 998 hPa | - | - | 0 W/m² | - |
| 1777884143 | 34.44° C | 59% | 998 hPa | - | - | 0 W/m² | - |
| 1777883220 | 34.44° C | 59% | 998 hPa | - | - | 0 W/m² | - |
| 1777882539 | 33.89° C | 61% | 998 hPa | - | - | 0 W/m² | - |
| 1777881617 | 36.67° C | 56% | 997 hPa | - | - | 0 W/m² | - |
| 1777880693 | 39.44° C | 49% | 997 hPa | - | - | 0 W/m² | - |
| 1777879770 | 39.44° C | 48% | 997 hPa | - | - | 0 W/m² | - |
| 1777878848 | 40° C | 47% | 997 hPa | - | - | 0 W/m² | - |
| 1777877926 | 40° C | 47% | 997 hPa | - | - | 0 W/m² | - |
| 1777877003 | 40.56° C | 46% | 997 hPa | - | - | 0 W/m² | - |
| 1777876078 | 40.56° C | 46% | 998 hPa | - | - | 0 W/m² | - |
| 1777875155 | 40° C | 47% | 998 hPa | - | - | 0 W/m² | - |
* Rain since midnight (hover to see other rain measurements)
** Current wind speed in m/s (hover to see current wind gust speed)